sensor_id;sensor_type;location;lat;lon;timestamp;P1;durP1;ratioP1;P2;durP2;ratioP2
30249;SDS011;17064;47.974;13.826;2022-09-09T00:02:33;1.30;;;1.20;;
30249;SDS011;17064;47.974;13.826;2022-09-09T00:07:54;1.15;;;1.05;;
30249;SDS011;17064;47.974;13.826;2022-09-09T00:13:23;2.20;;;1.02;;
30249;SDS011;17064;47.974;13.826;2022-09-09T00:19:01;1.05;;;0.68;;
30249;SDS011;17064;47.974;13.826;2022-09-09T00:29:52;1.15;;;0.60;;
30249;SDS011;17064;47.974;13.826;2022-09-09T00:46:21;1.00;;;0.68;;
30249;SDS011;17064;47.974;13.826;2022-09-09T00:57:13;3.08;;;0.70;;
30249;SDS011;17064;47.974;13.826;2022-09-09T01:08:22;0.75;;;0.43;;
30249;SDS011;17064;47.974;13.826;2022-09-09T01:14:43;1.40;;;0.70;;
30249;SDS011;17064;47.974;13.826;2022-09-09T01:20:10;1.23;;;0.50;;
30249;SDS011;17064;47.974;13.826;2022-09-09T01:31:37;1.58;;;0.50;;
30249;SDS011;17064;47.974;13.826;2022-09-09T01:37:10;1.15;;;0.50;;
30249;SDS011;17064;47.974;13.826;2022-09-09T01:42:31;0.50;;;0.50;;
30249;SDS011;17064;47.974;13.826;2022-09-09T01:47:51;3.53;;;0.60;;
30249;SDS011;17064;47.974;13.826;2022-09-09T01:53:11;3.15;;;0.50;;
30249;SDS011;17064;47.974;13.826;2022-09-09T02:05:02;0.57;;;0.50;;
30249;SDS011;17064;47.974;13.826;2022-09-09T02:10:01;0.95;;;0.60;;
30249;SDS011;17064;47.974;13.826;2022-09-09T02:21:40;1.73;;;0.40;;
30249;SDS011;17064;47.974;13.826;2022-09-09T02:27:03;0.93;;;0.40;;
30249;SDS011;17064;47.974;13.826;2022-09-09T02:32:25;3.85;;;0.60;;
30249;SDS011;17064;47.974;13.826;2022-09-09T02:37:49;1.58;;;0.50;;
30249;SDS011;17064;47.974;13.826;2022-09-09T02:43:11;0.60;;;0.60;;
30249;SDS011;17064;47.974;13.826;2022-09-09T02:48:45;2.05;;;0.50;;
30249;SDS011;17064;47.974;13.826;2022-09-09T02:54:18;3.80;;;0.60;;
30249;SDS011;17064;47.974;13.826;2022-09-09T02:59:50;2.72;;;0.43;;
30249;SDS011;17064;47.974;13.826;2022-09-09T03:10:32;0.90;;;0.70;;
30249;SDS011;17064;47.974;13.826;2022-09-09T03:15:53;1.27;;;0.63;;
30249;SDS011;17064;47.974;13.826;2022-09-09T03:21:13;0.80;;;0.40;;
30249;SDS011;17064;47.974;13.826;2022-09-09T03:26:33;3.67;;;0.80;;
30249;SDS011;17064;47.974;13.826;2022-09-09T03:31:52;0.47;;;0.43;;
30249;SDS011;17064;47.974;13.826;2022-09-09T03:37:11;3.42;;;1.00;;
30249;SDS011;17064;47.974;13.826;2022-09-09T03:42:31;3.13;;;0.70;;
30249;SDS011;17064;47.974;13.826;2022-09-09T03:47:50;1.25;;;0.50;;
30249;SDS011;17064;47.974;13.826;2022-09-09T03:53:09;2.00;;;0.47;;
30249;SDS011;17064;47.974;13.826;2022-09-09T03:58:29;1.45;;;0.52;;
30249;SDS011;17064;47.974;13.826;2022-09-09T04:03:48;2.28;;;0.68;;
30249;SDS011;17064;47.974;13.826;2022-09-09T04:09:09;3.63;;;0.60;;
30249;SDS011;17064;47.974;13.826;2022-09-09T04:14:28;0.80;;;0.80;;
30249;SDS011;17064;47.974;13.826;2022-09-09T04:19:48;1.05;;;0.70;;
30249;SDS011;17064;47.974;13.826;2022-09-09T04:25:07;2.60;;;0.80;;
30249;SDS011;17064;47.974;13.826;2022-09-09T04:30:27;5.88;;;0.90;;
30249;SDS011;17064;47.974;13.826;2022-09-09T04:35:46;3.33;;;2.25;;
30249;SDS011;17064;47.974;13.826;2022-09-09T04:41:07;7.43;;;0.82;;
30249;SDS011;17064;47.974;13.826;2022-09-09T04:46:29;0.40;;;0.40;;
30249;SDS011;17064;47.974;13.826;2022-09-09T04:51:49;0.70;;;0.60;;
30249;SDS011;17064;47.974;13.826;2022-09-09T04:57:10;0.70;;;0.60;;
30249;SDS011;17064;47.974;13.826;2022-09-09T05:02:29;1.55;;;0.90;;
30249;SDS011;17064;47.974;13.826;2022-09-09T05:07:48;1.00;;;0.70;;
30249;SDS011;17064;47.974;13.826;2022-09-09T05:13:08;2.28;;;1.10;;
30249;SDS011;17064;47.974;13.826;2022-09-09T05:18:27;4.28;;;1.40;;
30249;SDS011;17064;47.974;13.826;2022-09-09T05:23:46;4.07;;;1.02;;
30249;SDS011;17064;47.974;13.826;2022-09-09T05:29:06;1.35;;;1.20;;
30249;SDS011;17064;47.974;13.826;2022-09-09T05:34:26;1.67;;;1.15;;
30249;SDS011;17064;47.974;13.826;2022-09-09T05:39:45;6.57;;;1.20;;
30249;SDS011;17064;47.974;13.826;2022-09-09T05:45:05;2.50;;;1.38;;
30249;SDS011;17064;47.974;13.826;2022-09-09T05:50:26;10.38;;;2.15;;
30249;SDS011;17064;47.974;13.826;2022-09-09T05:55:46;4.97;;;2.03;;
30249;SDS011;17064;47.974;13.826;2022-09-09T06:01:07;4.30;;;2.10;;
30249;SDS011;17064;47.974;13.826;2022-09-09T06:06:33;5.23;;;1.00;;
30249;SDS011;17064;47.974;13.826;2022-09-09T06:11:55;2.78;;;1.00;;
30249;SDS011;17064;47.974;13.826;2022-09-09T06:17:16;0.98;;;0.77;;
30249;SDS011;17064;47.974;13.826;2022-09-09T06:22:35;2.95;;;0.85;;
30249;SDS011;17064;47.974;13.826;2022-09-09T06:27:54;1.85;;;0.70;;
30249;SDS011;17064;47.974;13.826;2022-09-09T06:33:14;1.90;;;1.23;;
30249;SDS011;17064;47.974;13.826;2022-09-09T06:38:33;5.57;;;1.05;;
30249;SDS011;17064;47.974;13.826;2022-09-09T06:43:53;7.03;;;1.10;;
30249;SDS011;17064;47.974;13.826;2022-09-09T06:49:14;1.95;;;1.00;;
30249;SDS011;17064;47.974;13.826;2022-09-09T06:54:33;5.75;;;0.68;;
30249;SDS011;17064;47.974;13.826;2022-09-09T06:59:55;1.20;;;0.55;;
30249;SDS011;17064;47.974;13.826;2022-09-09T07:05:14;4.25;;;0.98;;
30249;SDS011;17064;47.974;13.826;2022-09-09T07:10:34;3.75;;;0.90;;
30249;SDS011;17064;47.974;13.826;2022-09-09T07:15:54;4.65;;;1.45;;
30249;SDS011;17064;47.974;13.826;2022-09-09T07:21:13;5.85;;;1.33;;
30249;SDS011;17064;47.974;13.826;2022-09-09T07:26:33;5.20;;;1.35;;
30249;SDS011;17064;47.974;13.826;2022-09-09T07:31:53;1.92;;;1.00;;
30249;SDS011;17064;47.974;13.826;2022-09-09T07:37:13;2.60;;;1.35;;
30249;SDS011;17064;47.974;13.826;2022-09-09T07:42:32;3.50;;;1.40;;
30249;SDS011;17064;47.974;13.826;2022-09-09T07:47:52;2.67;;;1.63;;
30249;SDS011;17064;47.974;13.826;2022-09-09T07:53:11;4.60;;;1.45;;
30249;SDS011;17064;47.974;13.826;2022-09-09T07:58:31;4.97;;;1.80;;
30249;SDS011;17064;47.974;13.826;2022-09-09T08:03:57;4.15;;;1.50;;
30249;SDS011;17064;47.974;13.826;2022-09-09T08:09:20;4.03;;;1.88;;
30249;SDS011;17064;47.974;13.826;2022-09-09T08:20:03;5.13;;;2.17;;
30249;SDS011;17064;47.974;13.826;2022-09-09T08:25:32;4.20;;;1.83;;
30249;SDS011;17064;47.974;13.826;2022-09-09T08:30:53;2.78;;;1.83;;
30249;SDS011;17064;47.974;13.826;2022-09-09T08:36:15;5.90;;;1.90;;
30249;SDS011;17064;47.974;13.826;2022-09-09T08:47:28;7.18;;;1.85;;
30249;SDS011;17064;47.974;13.826;2022-09-09T08:53:16;3.75;;;1.75;;
30249;SDS011;17064;47.974;13.826;2022-09-09T08:58:38;2.03;;;1.45;;
30249;SDS011;17064;47.974;13.826;2022-09-09T09:09:57;4.82;;;2.10;;
30249;SDS011;17064;47.974;13.826;2022-09-09T09:15:30;3.63;;;1.80;;
30249;SDS011;17064;47.974;13.826;2022-09-09T09:21:06;2.85;;;2.13;;
30249;SDS011;17064;47.974;13.826;2022-09-09T09:26:35;4.03;;;2.50;;
30249;SDS011;17064;47.974;13.826;2022-09-09T09:31:55;3.50;;;1.65;;
30249;SDS011;17064;47.974;13.826;2022-09-09T09:37:26;4.30;;;2.40;;
30249;SDS011;17064;47.974;13.826;2022-09-09T09:42:58;7.07;;;3.08;;
30249;SDS011;17064;47.974;13.826;2022-09-09T09:48:19;8.73;;;2.97;;
30249;SDS011;17064;47.974;13.826;2022-09-09T09:53:39;3.30;;;2.67;;
30249;SDS011;17064;47.974;13.826;2022-09-09T09:58:58;4.47;;;2.53;;
30249;SDS011;17064;47.974;13.826;2022-09-09T10:04:19;6.32;;;3.35;;
30249;SDS011;17064;47.974;13.826;2022-09-09T10:09:42;3.67;;;3.17;;
30249;SDS011;17064;47.974;13.826;2022-09-09T10:15:02;6.90;;;3.60;;
30249;SDS011;17064;47.974;13.826;2022-09-09T10:26:01;7.43;;;3.55;;
30249;SDS011;17064;47.974;13.826;2022-09-09T10:43:18;7.90;;;3.65;;
30249;SDS011;17064;47.974;13.826;2022-09-09T10:59:43;5.28;;;3.00;;
30249;SDS011;17064;47.974;13.826;2022-09-09T11:21:40;13.07;;;3.00;;
30249;SDS011;17064;47.974;13.826;2022-09-09T11:38:44;7.40;;;3.80;;
30249;SDS011;17064;47.974;13.826;2022-09-09T11:44:12;8.32;;;4.63;;
30249;SDS011;17064;47.974;13.826;2022-09-09T11:54:56;5.38;;;4.53;;
30249;SDS011;17064;47.974;13.826;2022-09-09T12:00:36;6.70;;;4.70;;
30249;SDS011;17064;47.974;13.826;2022-09-09T12:22:30;8.40;;;5.57;;
30249;SDS011;17064;47.974;13.826;2022-09-09T12:27:46;10.02;;;5.65;;
30249;SDS011;17064;47.974;13.826;2022-09-09T12:33:11;8.45;;;5.78;;
30249;SDS011;17064;47.974;13.826;2022-09-09T12:38:19;7.03;;;6.05;;
30249;SDS011;17064;47.974;13.826;2022-09-09T12:43:27;8.57;;;6.07;;
30249;SDS011;17064;47.974;13.826;2022-09-09T12:48:36;10.35;;;6.10;;
30249;SDS011;17064;47.974;13.826;2022-09-09T12:53:40;8.18;;;5.63;;
30249;SDS011;17064;47.974;13.826;2022-09-09T12:58:44;9.02;;;5.95;;
30249;SDS011;17064;47.974;13.826;2022-09-09T13:03:47;6.57;;;5.57;;
30249;SDS011;17064;47.974;13.826;2022-09-09T13:08:56;7.32;;;5.68;;
30249;SDS011;17064;47.974;13.826;2022-09-09T13:13:59;10.80;;;5.40;;
30249;SDS011;17064;47.974;13.826;2022-09-09T13:19:08;9.07;;;5.50;;
30249;SDS011;17064;47.974;13.826;2022-09-09T13:24:30;6.93;;;5.43;;
30249;SDS011;17064;47.974;13.826;2022-09-09T13:29:32;9.65;;;6.45;;
30249;SDS011;17064;47.974;13.826;2022-09-09T13:34:33;11.98;;;8.60;;
30249;SDS011;17064;47.974;13.826;2022-09-09T13:39:36;10.68;;;7.30;;
30249;SDS011;17064;47.974;13.826;2022-09-09T13:44:38;10.93;;;7.65;;
30249;SDS011;17064;47.974;13.826;2022-09-09T13:49:41;9.98;;;7.68;;
30249;SDS011;17064;47.974;13.826;2022-09-09T13:54:42;10.82;;;8.20;;
30249;SDS011;17064;47.974;13.826;2022-09-09T13:59:43;10.38;;;7.13;;
30249;SDS011;17064;47.974;13.826;2022-09-09T14:04:45;17.00;;;8.47;;
30249;SDS011;17064;47.974;13.826;2022-09-09T14:09:46;16.48;;;8.80;;
30249;SDS011;17064;47.974;13.826;2022-09-09T14:14:51;10.23;;;7.30;;
30249;SDS011;17064;47.974;13.826;2022-09-09T14:19:52;10.45;;;7.93;;
30249;SDS011;17064;47.974;13.826;2022-09-09T14:24:53;10.38;;;8.57;;
30249;SDS011;17064;47.974;13.826;2022-09-09T14:29:53;10.73;;;7.78;;
30249;SDS011;17064;47.974;13.826;2022-09-09T14:34:57;13.35;;;7.90;;
30249;SDS011;17064;47.974;13.826;2022-09-09T14:39:58;9.68;;;7.18;;
30249;SDS011;17064;47.974;13.826;2022-09-09T14:44:59;9.40;;;6.20;;
30249;SDS011;17064;47.974;13.826;2022-09-09T14:50:00;7.22;;;4.75;;
30249;SDS011;17064;47.974;13.826;2022-09-09T15:00:03;5.35;;;3.50;;
30249;SDS011;17064;47.974;13.826;2022-09-09T15:05:05;6.03;;;3.60;;
30249;SDS011;17064;47.974;13.826;2022-09-09T15:10:06;4.93;;;2.80;;
30249;SDS011;17064;47.974;13.826;2022-09-09T15:15:07;4.95;;;3.28;;
30249;SDS011;17064;47.974;13.826;2022-09-09T15:20:09;8.10;;;4.40;;
30249;SDS011;17064;47.974;13.826;2022-09-09T15:25:09;6.55;;;5.00;;
30249;SDS011;17064;47.974;13.826;2022-09-09T15:30:12;7.65;;;4.72;;
30249;SDS011;17064;47.974;13.826;2022-09-09T15:35:13;8.90;;;4.82;;
30249;SDS011;17064;47.974;13.826;2022-09-09T15:40:14;4.38;;;3.40;;
30249;SDS011;17064;47.974;13.826;2022-09-09T15:45:14;7.53;;;3.50;;
30249;SDS011;17064;47.974;13.826;2022-09-09T15:50:15;6.30;;;3.13;;
30249;SDS011;17064;47.974;13.826;2022-09-09T15:55:17;2.97;;;2.22;;
30249;SDS011;17064;47.974;13.826;2022-09-09T16:00:18;5.18;;;2.88;;
30249;SDS011;17064;47.974;13.826;2022-09-09T16:05:19;5.68;;;2.42;;
30249;SDS011;17064;47.974;13.826;2022-09-09T16:10:20;4.75;;;2.30;;
30249;SDS011;17064;47.974;13.826;2022-09-09T16:15:21;4.40;;;1.92;;
30249;SDS011;17064;47.974;13.826;2022-09-09T16:20:23;5.22;;;2.08;;
30249;SDS011;17064;47.974;13.826;2022-09-09T16:25:23;3.47;;;1.88;;
30249;SDS011;17064;47.974;13.826;2022-09-09T16:30:24;3.20;;;1.92;;
30249;SDS011;17064;47.974;13.826;2022-09-09T16:35:25;4.50;;;1.67;;
30249;SDS011;17064;47.974;13.826;2022-09-09T16:40:26;4.10;;;1.80;;
30249;SDS011;17064;47.974;13.826;2022-09-09T16:45:27;7.30;;;1.75;;
30249;SDS011;17064;47.974;13.826;2022-09-09T16:50:27;3.75;;;1.50;;
30249;SDS011;17064;47.974;13.826;2022-09-09T16:55:31;3.17;;;1.48;;
30249;SDS011;17064;47.974;13.826;2022-09-09T17:00:32;3.70;;;1.40;;
30249;SDS011;17064;47.974;13.826;2022-09-09T17:05:38;4.25;;;1.67;;
30249;SDS011;17064;47.974;13.826;2022-09-09T17:10:41;3.33;;;1.30;;
30249;SDS011;17064;47.974;13.826;2022-09-09T17:15:42;2.33;;;1.20;;
30249;SDS011;17064;47.974;13.826;2022-09-09T17:20:43;3.38;;;1.88;;
30249;SDS011;17064;47.974;13.826;2022-09-09T17:25:44;6.68;;;2.42;;
30249;SDS011;17064;47.974;13.826;2022-09-09T17:30:45;5.63;;;2.58;;
30249;SDS011;17064;47.974;13.826;2022-09-09T17:35:47;4.93;;;3.17;;
30249;SDS011;17064;47.974;13.826;2022-09-09T17:40:49;3.42;;;3.13;;
30249;SDS011;17064;47.974;13.826;2022-09-09T17:45:50;3.67;;;2.80;;
30249;SDS011;17064;47.974;13.826;2022-09-09T17:50:56;6.43;;;2.75;;
30249;SDS011;17064;47.974;13.826;2022-09-09T17:56:02;2.75;;;1.80;;
30249;SDS011;17064;47.974;13.826;2022-09-09T18:01:06;3.15;;;2.20;;
30249;SDS011;17064;47.974;13.826;2022-09-09T18:06:11;3.72;;;2.25;;
30249;SDS011;17064;47.974;13.826;2022-09-09T18:11:15;3.13;;;1.70;;
30249;SDS011;17064;47.974;13.826;2022-09-09T18:16:17;2.28;;;2.08;;
30249;SDS011;17064;47.974;13.826;2022-09-09T18:21:18;2.92;;;2.10;;
30249;SDS011;17064;47.974;13.826;2022-09-09T18:26:20;3.80;;;1.92;;
30249;SDS011;17064;47.974;13.826;2022-09-09T18:31:24;3.78;;;1.70;;
30249;SDS011;17064;47.974;13.826;2022-09-09T18:36:30;2.08;;;1.80;;
30249;SDS011;17064;47.974;13.826;2022-09-09T18:41:37;2.72;;;2.03;;
30249;SDS011;17064;47.974;13.826;2022-09-09T18:46:43;8.48;;;2.13;;
30249;SDS011;17064;47.974;13.826;2022-09-09T18:51:44;3.83;;;2.22;;
30249;SDS011;17064;47.974;13.826;2022-09-09T18:56:45;3.63;;;2.20;;
30249;SDS011;17064;47.974;13.826;2022-09-09T19:01:47;4.65;;;2.08;;
30249;SDS011;17064;47.974;13.826;2022-09-09T19:06:49;5.07;;;2.75;;
30249;SDS011;17064;47.974;13.826;2022-09-09T19:11:56;2.65;;;2.45;;
30249;SDS011;17064;47.974;13.826;2022-09-09T19:16:58;2.30;;;2.07;;
30249;SDS011;17064;47.974;13.826;2022-09-09T19:22:00;2.05;;;1.27;;
30249;SDS011;17064;47.974;13.826;2022-09-09T19:27:02;3.20;;;1.45;;
30249;SDS011;17064;47.974;13.826;2022-09-09T19:32:05;2.58;;;1.65;;
30249;SDS011;17064;47.974;13.826;2022-09-09T19:37:06;1.85;;;1.10;;
30249;SDS011;17064;47.974;13.826;2022-09-09T19:42:07;2.35;;;1.55;;
30249;SDS011;17064;47.974;13.826;2022-09-09T19:47:08;3.10;;;1.60;;
30249;SDS011;17064;47.974;13.826;2022-09-09T19:52:09;2.70;;;1.30;;
30249;SDS011;17064;47.974;13.826;2022-09-09T19:57:10;1.10;;;1.00;;
30249;SDS011;17064;47.974;13.826;2022-09-09T20:02:11;1.90;;;1.30;;
30249;SDS011;17064;47.974;13.826;2022-09-09T20:12:15;1.38;;;1.17;;
30249;SDS011;17064;47.974;13.826;2022-09-09T20:17:15;3.85;;;1.42;;
30249;SDS011;17064;47.974;13.826;2022-09-09T20:22:16;2.22;;;0.93;;
30249;SDS011;17064;47.974;13.826;2022-09-09T20:27:17;3.70;;;1.15;;
30249;SDS011;17064;47.974;13.826;2022-09-09T20:32:18;2.17;;;0.80;;
30249;SDS011;17064;47.974;13.826;2022-09-09T20:37:18;2.40;;;0.68;;
30249;SDS011;17064;47.974;13.826;2022-09-09T20:42:23;2.42;;;0.77;;
30249;SDS011;17064;47.974;13.826;2022-09-09T20:47:26;1.25;;;0.77;;
30249;SDS011;17064;47.974;13.826;2022-09-09T20:52:30;0.98;;;0.70;;
30249;SDS011;17064;47.974;13.826;2022-09-09T20:57:30;3.80;;;0.70;;
30249;SDS011;17064;47.974;13.826;2022-09-09T21:02:31;1.60;;;0.73;;
30249;SDS011;17064;47.974;13.826;2022-09-09T21:07:32;2.28;;;1.05;;
30249;SDS011;17064;47.974;13.826;2022-09-09T21:12:32;2.42;;;1.27;;
30249;SDS011;17064;47.974;13.826;2022-09-09T21:17:33;2.60;;;1.00;;
30249;SDS011;17064;47.974;13.826;2022-09-09T21:22:34;0.80;;;0.80;;
30249;SDS011;17064;47.974;13.826;2022-09-09T21:27:34;2.67;;;0.75;;
30249;SDS011;17064;47.974;13.826;2022-09-09T21:32:35;2.30;;;1.15;;
30249;SDS011;17064;47.974;13.826;2022-09-09T21:37:36;1.10;;;0.93;;
30249;SDS011;17064;47.974;13.826;2022-09-09T21:42:37;2.75;;;1.10;;
30249;SDS011;17064;47.974;13.826;2022-09-09T21:47:38;1.63;;;1.10;;
30249;SDS011;17064;47.974;13.826;2022-09-09T21:52:38;1.70;;;1.10;;
30249;SDS011;17064;47.974;13.826;2022-09-09T21:57:39;2.72;;;1.50;;
30249;SDS011;17064;47.974;13.826;2022-09-09T22:02:40;1.98;;;1.80;;
30249;SDS011;17064;47.974;13.826;2022-09-09T22:07:40;2.60;;;2.20;;
30249;SDS011;17064;47.974;13.826;2022-09-09T22:12:41;5.63;;;2.80;;
30249;SDS011;17064;47.974;13.826;2022-09-09T22:17:42;3.22;;;2.65;;
30249;SDS011;17064;47.974;13.826;2022-09-09T22:22:42;3.30;;;2.45;;
30249;SDS011;17064;47.974;13.826;2022-09-09T22:27:43;2.53;;;1.70;;
30249;SDS011;17064;47.974;13.826;2022-09-09T22:32:44;1.75;;;1.02;;
30249;SDS011;17064;47.974;13.826;2022-09-09T22:37:45;4.05;;;0.90;;
30249;SDS011;17064;47.974;13.826;2022-09-09T22:42:46;2.20;;;1.00;;
30249;SDS011;17064;47.974;13.826;2022-09-09T22:47:47;1.33;;;0.80;;
30249;SDS011;17064;47.974;13.826;2022-09-09T22:52:47;2.67;;;0.90;;
30249;SDS011;17064;47.974;13.826;2022-09-09T22:57:48;3.38;;;0.70;;
30249;SDS011;17064;47.974;13.826;2022-09-09T23:02:49;2.30;;;1.05;;
30249;SDS011;17064;47.974;13.826;2022-09-09T23:07:50;2.40;;;0.85;;
30249;SDS011;17064;47.974;13.826;2022-09-09T23:12:57;0.75;;;0.70;;
30249;SDS011;17064;47.974;13.826;2022-09-09T23:17:58;4.13;;;0.90;;
30249;SDS011;17064;47.974;13.826;2022-09-09T23:22:58;2.00;;;0.85;;
30249;SDS011;17064;47.974;13.826;2022-09-09T23:28:00;1.98;;;0.63;;
30249;SDS011;17064;47.974;13.826;2022-09-09T23:33:01;3.97;;;1.23;;
30249;SDS011;17064;47.974;13.826;2022-09-09T23:38:01;6.43;;;0.80;;
30249;SDS011;17064;47.974;13.826;2022-09-09T23:43:02;2.90;;;0.73;;
30249;SDS011;17064;47.974;13.826;2022-09-09T23:48:05;4.45;;;0.60;;
30249;SDS011;17064;47.974;13.826;2022-09-09T23:53:05;4.88;;;0.40;;
30249;SDS011;17064;47.974;13.826;2022-09-09T23:58:07;1.75;;;0.50;;
